createdAt,value
2016-01-04T00:00:12.018Z,79
2016-01-04T00:01:11.956Z,78.8
2016-01-04T00:02:11.889Z,79
2016-01-04T00:03:11.845Z,78.3
2016-01-04T00:04:11.785Z,78.7
2016-01-04T00:05:11.709Z,79.1
2016-01-04T00:06:11.650Z,78.9
2016-01-04T00:07:11.574Z,78.5
2016-01-04T00:08:11.515Z,78.5
2016-01-04T00:09:11.470Z,78.7
2016-01-04T00:10:11.379Z,78.5
2016-01-04T00:11:11.351Z,79.3
2016-01-04T00:12:11.259Z,78
2016-01-04T00:13:11.185Z,78.4
2016-01-04T00:14:11.125Z,78.2
2016-01-04T00:15:11.283Z,77.7
2016-01-04T00:16:10.990Z,77.5
2016-01-04T00:17:10.930Z,77.6
2016-01-04T00:18:10.854Z,76.9
2016-01-04T00:19:10.794Z,77.6
2016-01-04T00:20:09.984Z,77.4
2016-01-04T00:21:10.659Z,77.5
2016-01-04T00:22:10.600Z,77.4
2016-01-04T00:23:10.775Z,77.5
2016-01-04T00:24:10.465Z,77.6
2016-01-04T00:25:10.640Z,77.5
2016-01-04T00:26:10.345Z,77.9
2016-01-04T00:27:10.285Z,77.3
2016-01-04T00:28:10.444Z,76.8
2016-01-04T00:29:10.150Z,77
2016-01-04T00:30:10.090Z,78.6
2016-01-04T00:31:10.014Z,79
2016-01-04T00:32:09.956Z,78.6
2016-01-04T00:33:09.880Z,78.9
2016-01-04T00:34:09.819Z,79.6
2016-01-04T00:35:09.994Z,79.5
2016-01-04T00:36:09.700Z,78.4
2016-01-04T00:37:09.641Z,77.8
2016-01-04T00:38:09.566Z,77.1
2016-01-04T00:39:09.505Z,77.2
2016-01-04T00:40:09.446Z,77.4
2016-01-04T00:41:09.371Z,78.1
2016-01-04T00:42:09.311Z,78.2
2016-01-04T00:43:09.252Z,78.6
2016-01-04T00:44:09.191Z,78.2
2016-01-04T00:45:09.100Z,78.3
2016-01-04T00:46:09.056Z,78
2016-01-04T00:47:08.980Z,78.3
2016-01-04T00:48:08.920Z,78.1
2016-01-04T00:49:08.860Z,78.5
2016-01-04T00:50:08.816Z,77.8
2016-01-04T00:51:08.726Z,78.3
2016-01-04T00:52:08.665Z,77.4
2016-01-04T00:53:08.590Z,77.6
2016-01-04T00:54:08.531Z,77.7
2016-01-04T00:55:08.487Z,77.4
2016-01-04T00:56:08.412Z,77.5
2016-01-04T00:57:08.335Z,78.1
2016-01-04T00:58:08.259Z,77.3
2016-01-04T00:59:08.201Z,77.4
2016-01-04T01:00:08.141Z,76.9
2016-01-04T01:01:08.081Z,77.7
2016-01-04T01:02:08.240Z,77.8
2016-01-04T01:03:07.945Z,78
2016-01-04T01:04:07.870Z,77.6
2016-01-04T01:05:07.811Z,78.5
2016-01-04T01:06:07.751Z,78.2
2016-01-04T01:07:07.692Z,78.6
2016-01-04T01:08:07.614Z,78.6
2016-01-04T01:09:07.540Z,78.7
2016-01-04T01:10:07.480Z,78.2
2016-01-04T01:11:07.420Z,78.4
2016-01-04T01:12:07.361Z,78.8
2016-01-04T01:13:07.285Z,79
2016-01-04T01:14:07.225Z,79.3
2016-01-04T01:15:07.166Z,79.7
2016-01-04T01:16:07.088Z,79.4
2016-01-04T01:17:07.044Z,78.9
2016-01-04T01:18:06.983Z,79.6
2016-01-04T01:19:06.891Z,80.2
2016-01-04T01:20:07.066Z,79.5
2016-01-04T01:21:06.773Z,78.5
2016-01-04T01:22:13.653Z,78.1
2016-01-04T01:23:06.638Z,78.9
2016-01-04T01:24:06.563Z,78.4
2016-01-04T01:25:06.503Z,79.2
2016-01-04T01:26:06.443Z,79.6
2016-01-04T01:27:06.368Z,80
2016-01-04T01:28:06.307Z,79.7
2016-01-04T01:29:06.248Z,79
2016-01-04T01:30:06.188Z,78.7
2016-01-04T01:31:06.112Z,78.5
2016-01-04T01:32:06.287Z,79.7
2016-01-04T01:33:05.993Z,79
2016-01-04T01:34:05.917Z,77.8
2016-01-04T01:35:05.873Z,78.2
2016-01-04T01:36:05.798Z,79.1
2016-01-04T01:37:05.738Z,78.7
2016-01-04T01:38:05.662Z,78.1
2016-01-04T01:39:05.604Z,77.8
2016-01-04T01:40:05.528Z,77.4
2016-01-04T01:41:05.468Z,77.4
2016-01-04T01:42:05.393Z,77.4
2016-01-04T01:43:05.582Z,78.1
2016-01-04T01:44:05.273Z,77.8
2016-01-04T01:45:05.213Z,78.2
2016-01-04T01:46:04.420Z,78.3
2016-01-04T01:47:05.328Z,77.8
2016-01-04T01:48:05.017Z,78
2016-01-04T01:49:04.942Z,78.3
2016-01-04T01:50:04.883Z,78.5
2016-01-04T01:51:04.823Z,78.2
2016-01-04T01:52:04.763Z,77.9
2016-01-04T01:53:04.922Z,78.1
2016-01-04T01:54:04.628Z,78.6
2016-01-04T01:55:04.568Z,79
2016-01-04T01:56:04.509Z,78.6
2016-01-04T01:57:04.449Z,78.8
2016-01-04T01:58:04.405Z,79.7
2016-01-04T01:59:04.297Z,80.5
2016-01-04T02:00:04.253Z,80.5
2016-01-04T02:01:04.178Z,80.7
2016-01-04T02:02:04.103Z,79.5
2016-01-04T02:03:04.043Z,78.2
2016-01-04T02:04:03.983Z,78.8
2016-01-04T02:05:03.923Z,79
2016-01-04T02:06:03.848Z,79.5
2016-01-04T02:07:03.788Z,79
2016-01-04T02:08:03.729Z,78.5
2016-01-04T02:09:03.653Z,78.7
2016-01-04T02:10:03.593Z,77.7
2016-01-04T02:11:03.533Z,77.9
2016-01-04T02:12:03.458Z,78
2016-01-04T02:13:03.398Z,78.2
2016-01-04T02:14:03.339Z,77.8
2016-01-04T02:15:03.263Z,78.1
2016-01-04T02:16:03.204Z,77.4
2016-01-04T02:17:03.143Z,77.8
2016-01-04T02:18:03.085Z,77.9
2016-01-04T02:19:03.024Z,78
2016-01-04T02:20:02.949Z,78.5
2016-01-04T02:21:02.889Z,78.6
2016-01-04T02:22:02.828Z,78.5
2016-01-04T02:23:02.770Z,77.9
2016-01-04T02:24:02.710Z,77.6
2016-01-04T02:25:02.478Z,78.7
2016-01-04T02:26:02.559Z,78.6
2016-01-04T02:27:02.499Z,78.3
2016-01-04T02:28:02.439Z,77.8
2016-01-04T02:29:02.379Z,77.7
2016-01-04T02:30:02.304Z,78.6
2016-01-04T02:31:02.244Z,78.3
2016-01-04T02:32:02.184Z,77.9
2016-01-04T02:33:02.109Z,78.2
2016-01-04T02:34:02.049Z,77.8
2016-01-04T02:35:01.989Z,78.8
2016-01-04T02:36:01.930Z,79.1
2016-01-04T02:37:01.854Z,79.3
2016-01-04T02:38:01.795Z,79.1
2016-01-04T02:39:01.719Z,79.3
2016-01-04T02:40:01.659Z,79.8
2016-01-04T02:41:01.600Z,79.7
2016-01-04T02:42:01.539Z,79
2016-01-04T02:43:01.699Z,78.5
2016-01-04T02:44:01.405Z,77.9
2016-01-04T02:45:01.330Z,77.8
2016-01-04T02:46:01.269Z,77.4
2016-01-04T02:47:01.225Z,78.1
2016-01-04T02:48:01.147Z,77.2
2016-01-04T02:49:01.071Z,77.4
2016-01-04T02:50:01.011Z,77
2016-01-04T02:51:00.952Z,77.3
2016-01-04T02:52:00.891Z,78.2
2016-01-04T02:53:00.083Z,78
2016-01-04T02:54:00.758Z,78.1
2016-01-04T02:55:00.682Z,77.5
2016-01-04T02:56:00.621Z,77.9
2016-01-04T02:57:00.563Z,78.3
2016-01-04T02:58:00.502Z,77.7
2016-01-04T02:59:00.443Z,79.4
2016-01-04T03:00:00.367Z,78.2
2016-01-04T03:01:00.307Z,78.1
2016-01-04T03:02:00.263Z,77.9
2016-01-04T03:03:00.172Z,77.7
2016-01-04T03:04:00.096Z,77.8
2016-01-04T03:05:00.037Z,77.9
2016-01-04T03:05:59.977Z,77.7
2016-01-04T03:06:59.901Z,77.8
2016-01-04T03:07:59.842Z,78.1
2016-01-04T03:08:59.782Z,77.7
2016-01-04T03:09:59.707Z,78.4
2016-01-04T03:10:59.647Z,78
2016-01-04T03:11:59.603Z,78.5
2016-01-04T03:12:59.511Z,78.5
2016-01-04T03:13:59.451Z,78.5
2016-01-04T03:14:59.392Z,78
2016-01-04T03:15:59.317Z,78.6
2016-01-04T03:16:59.256Z,78.8
2016-01-04T03:17:59.181Z,77.7
2016-01-04T03:18:59.122Z,78
2016-01-04T03:19:59.062Z,78.9
2016-01-04T03:20:59.003Z,78.6
2016-01-04T03:21:58.927Z,77.5
2016-01-04T03:22:58.866Z,78.4
2016-01-04T03:23:58.807Z,78.4
2016-01-04T03:24:58.731Z,77.9
2016-01-04T03:25:58.687Z,77.8
2016-01-04T03:26:58.612Z,76.3
2016-01-04T03:27:58.552Z,75.8
2016-01-04T03:28:58.477Z,76.9
2016-01-04T03:29:58.652Z,76.7
2016-01-04T03:30:58.357Z,77.7
2016-01-04T03:31:58.297Z,78.9
2016-01-04T03:32:58.207Z,79.2
2016-01-04T03:33:58.146Z,77.2
2016-01-04T03:34:58.087Z,77.7
2016-01-04T03:35:58.027Z,77.8
2016-01-04T03:36:57.967Z,77.7
2016-01-04T03:37:57.157Z,78.6
2016-01-04T03:38:57.832Z,78.5
2016-01-04T03:39:57.772Z,77.5
2016-01-04T03:40:57.713Z,77.4
2016-01-04T03:41:57.637Z,77.5
2016-01-04T03:42:57.577Z,77.3
2016-01-04T03:43:57.502Z,76.9
2016-01-04T03:44:57.443Z,77.3
2016-01-04T03:45:57.382Z,76.6
2016-01-04T03:46:57.307Z,77.9
2016-01-04T03:47:57.248Z,78.4
2016-01-04T03:48:57.438Z,79.3
2016-01-04T03:49:57.112Z,79.3
2016-01-04T03:50:57.068Z,77.6
2016-01-04T03:51:56.992Z,76.7
2016-01-04T03:52:56.932Z,76.9
2016-01-04T03:53:56.873Z,77
2016-01-04T03:54:56.798Z,77.6
2016-01-04T03:55:56.737Z,77.5
2016-01-04T03:56:56.678Z,77.7
2016-01-04T03:57:56.618Z,78.1
2016-01-04T03:58:56.542Z,77.8
2016-01-04T03:59:56.467Z,77.3
2016-01-04T04:00:56.407Z,77.5
2016-01-04T04:01:56.347Z,77.7
2016-01-04T04:02:56.304Z,77.7
2016-01-04T04:03:56.228Z,78.5
2016-01-04T04:04:56.153Z,78.1
2016-01-04T04:05:56.077Z,77.6
2016-01-04T04:06:56.017Z,78.5
2016-01-04T04:07:55.958Z,78
2016-01-04T04:08:55.898Z,78
2016-01-04T04:09:55.822Z,78.6
2016-01-04T04:10:55.763Z,77.6
2016-01-04T04:11:55.688Z,77.3
2016-01-04T04:12:55.628Z,78
2016-01-04T04:13:55.568Z,78.3
2016-01-04T04:14:55.507Z,78.4
2016-01-04T04:15:55.449Z,78
2016-01-04T04:16:55.372Z,77.2
2016-01-04T04:17:55.313Z,77.4
2016-01-04T04:18:55.252Z,76.5
2016-01-04T04:19:55.193Z,76.9
2016-01-04T04:20:55.118Z,77.1
2016-01-04T04:21:55.292Z,77
2016-01-04T04:22:54.982Z,77.2
2016-01-04T04:23:54.923Z,76.6
2016-01-04T04:24:54.863Z,77.8
2016-01-04T04:25:54.803Z,78.7
2016-01-04T04:26:54.931Z,78.8
2016-01-04T04:27:54.824Z,77.8
2016-01-04T04:28:54.593Z,77
2016-01-04T04:29:54.549Z,78.3
2016-01-04T04:30:54.489Z,78.9
2016-01-04T04:31:54.413Z,79.1
2016-01-04T04:32:54.335Z,79.5
2016-01-04T04:34:09.481Z,78.5
2016-01-04T04:36:08.956Z,79
2016-01-04T04:38:08.617Z,78.7
2016-01-04T04:38:55.179Z,79.1
2016-01-04T04:39:54.431Z,79.1
2016-01-04T04:41:08.016Z,78.7
2016-01-04T04:41:53.828Z,78.7
2016-01-04T04:44:09.258Z,79.5
2016-01-04T04:45:07.823Z,79.6
2016-01-04T04:46:54.561Z,79.1
2016-01-04T04:47:53.438Z,80
2016-01-04T04:49:07.553Z,78.6
2016-01-04T04:49:53.288Z,78.7
2016-01-04T04:50:53.291Z,78.9
2016-01-04T04:51:53.214Z,78.9
2016-01-04T04:52:54.967Z,78.6
2016-01-04T04:54:07.348Z,79.2
2016-01-04T04:56:54.135Z,78.7
2016-01-04T04:57:52.793Z,79.1
2016-01-04T04:58:54.031Z,79.8
2016-01-04T04:59:52.674Z,79.4
2016-01-04T05:00:52.599Z,79.2
2016-01-04T05:01:52.538Z,79.5
2016-01-04T05:03:06.604Z,78.7
2016-01-04T05:03:52.403Z,78.6
2016-01-04T05:04:52.360Z,79.2
2016-01-04T05:05:52.316Z,79.1
2016-01-04T05:06:52.223Z,79.8
2016-01-04T05:07:52.164Z,79.2
2016-01-04T05:08:52.104Z,78.9
2016-01-04T05:09:52.045Z,78.4
2016-01-04T05:10:51.970Z,77.9
2016-01-04T05:11:51.909Z,77.7
2016-01-04T05:12:51.834Z,77.9
2016-01-04T05:13:51.774Z,78.6
2016-01-04T05:14:51.698Z,78.4
2016-01-04T05:15:51.639Z,79.2
2016-01-04T05:16:51.579Z,78.5
2016-01-04T05:17:51.520Z,77.7
2016-01-04T05:18:51.444Z,79
2016-01-04T05:19:51.385Z,78.6
2016-01-04T05:20:51.325Z,79
2016-01-04T05:21:51.250Z,78.5
2016-01-04T05:22:51.190Z,78.6
2016-01-04T05:23:51.115Z,79.4
2016-01-04T05:24:51.070Z,79.3
2016-01-04T05:25:50.995Z,79.1
2016-01-04T05:26:50.934Z,78.5
2016-01-04T05:27:50.875Z,79.9
2016-01-04T05:28:50.814Z,79.9
2016-01-04T05:29:50.739Z,79.7
2016-01-04T05:30:50.681Z,79.4
2016-01-04T05:31:50.605Z,80
2016-01-04T05:32:50.544Z,79.8
2016-01-04T05:33:50.486Z,79.6
2016-01-04T05:34:50.644Z,80
2016-01-04T05:35:50.365Z,79.3
2016-01-04T05:36:50.290Z,79
2016-01-04T05:37:50.230Z,79.4
2016-01-04T05:38:50.171Z,80.6
2016-01-04T05:39:50.110Z,81.1
2016-01-04T05:40:50.035Z,81.1
2016-01-04T05:41:49.960Z,79.7
2016-01-04T05:42:49.900Z,80
2016-01-04T05:43:49.841Z,79.9
2016-01-04T05:44:49.780Z,78.5
2016-01-04T05:45:49.704Z,79.7
2016-01-04T05:46:49.645Z,79.4
2016-01-04T05:47:49.585Z,79.2
2016-01-04T05:48:49.509Z,79.3
2016-01-04T05:49:49.451Z,78.9
2016-01-04T05:50:49.390Z,78.6
2016-01-04T05:51:49.549Z,78
2016-01-04T05:52:49.255Z,77.7
2016-01-04T05:53:49.196Z,77.8
2016-01-04T05:54:49.120Z,77.8
2016-01-04T05:55:49.076Z,78.4
2016-01-04T05:56:49.032Z,78.6
2016-01-04T05:57:48.925Z,78.9
2016-01-04T05:58:48.880Z,80
2016-01-04T05:59:48.806Z,79.8
2016-01-04T06:00:48.746Z,79
2016-01-04T06:01:48.686Z,79.9
2016-01-04T06:02:48.611Z,79.6
2016-01-04T06:03:47.800Z,79.5
2016-01-04T06:04:48.475Z,78.8
2016-01-04T06:05:48.415Z,78.9
2016-01-04T06:06:48.356Z,78.8
2016-01-04T06:07:48.280Z,79.3
2016-01-04T06:08:48.220Z,79.7
2016-01-04T06:09:48.161Z,80.2
2016-01-04T06:10:48.101Z,80.8
2016-01-04T06:11:48.041Z,80.5
2016-01-04T06:12:47.231Z,80.5
2016-01-04T06:13:47.891Z,80.1
2016-01-04T06:14:47.830Z,80.6
2016-01-04T06:15:47.771Z,81.3
2016-01-04T06:16:47.708Z,81.2
2016-01-04T06:17:47.648Z,81.1
2016-01-04T06:18:47.589Z,81.7
2016-01-04T06:19:47.514Z,79.4
2016-01-04T06:20:47.453Z,79.8
2016-01-04T06:21:47.394Z,80.1
2016-01-04T06:22:47.318Z,80.4
2016-01-04T06:23:47.274Z,79.9
2016-01-04T06:24:47.198Z,80.1
2016-01-04T06:25:47.124Z,80.1
2016-01-04T06:26:47.063Z,80.5
2016-01-04T06:27:47.004Z,79.7
2016-01-04T06:28:46.943Z,80.8
2016-01-04T06:29:46.868Z,81.2
2016-01-04T06:30:46.809Z,81.1
2016-01-04T06:31:46.733Z,80.9
2016-01-04T06:32:46.673Z,79.9
2016-01-04T06:33:46.613Z,79.3
2016-01-04T06:34:46.553Z,79.1
2016-01-04T06:35:46.494Z,79
2016-01-04T06:36:46.418Z,78.8
2016-01-04T06:37:46.374Z,79.8
2016-01-04T06:38:46.298Z,78.9
2016-01-04T06:39:46.223Z,79.4
2016-01-04T06:40:46.179Z,80
2016-01-04T06:41:46.089Z,79.3
2016-01-04T06:42:46.029Z,79.4
2016-01-04T06:43:45.984Z,80
2016-01-04T06:44:45.909Z,78.3
2016-01-04T06:45:45.849Z,78.8
2016-01-04T06:46:45.789Z,78.3
2016-01-04T06:47:45.714Z,78.2
2016-01-04T06:48:45.638Z,78.1
2016-01-04T06:49:45.594Z,77.9
2016-01-04T06:50:45.519Z,78.7
2016-01-04T06:51:45.459Z,78
2016-01-04T06:52:45.400Z,79.4
2016-01-04T06:53:45.324Z,79.4
2016-01-04T06:54:45.264Z,78.6
2016-01-04T06:55:45.204Z,78.2
2016-01-04T06:56:45.161Z,78.3
2016-01-04T06:57:45.085Z,79.8
2016-01-04T06:58:44.260Z,78.7
2016-01-04T06:59:44.950Z,79
2016-01-04T07:00:44.875Z,79
2016-01-04T07:01:44.814Z,78.5
2016-01-04T07:02:44.771Z,78.5
2016-01-04T07:03:44.680Z,78.3
2016-01-04T07:04:44.619Z,78.4
2016-01-04T07:05:44.560Z,77.9
2016-01-04T07:06:44.500Z,78.3
2016-01-04T07:07:44.440Z,79.1
2016-01-04T07:08:44.380Z,79.3
2016-01-04T07:09:44.289Z,77.5
2016-01-04T07:10:44.245Z,77.4
2016-01-04T07:11:44.170Z,78
2016-01-04T07:12:44.109Z,77.9
2016-01-04T07:13:44.051Z,77.8
2016-01-04T07:14:43.991Z,77.9
2016-01-04T07:15:43.915Z,78.2
2016-01-04T07:16:43.854Z,78.3
2016-01-04T07:17:43.779Z,78.7
2016-01-04T07:18:43.735Z,78.8
2016-01-04T07:19:43.660Z,78.2
2016-01-04T07:20:43.601Z,77.9
2016-01-04T07:21:43.540Z,77.9
2016-01-04T07:22:43.465Z,78.1
2016-01-04T07:23:43.405Z,78.3
2016-01-04T07:24:43.330Z,79
2016-01-04T07:25:43.286Z,79.2
2016-01-04T07:26:43.211Z,78.9
2016-01-04T07:27:43.151Z,78.7
2016-01-04T07:28:43.075Z,79.1
2016-01-04T07:29:43.030Z,78.3
2016-01-04T07:30:42.955Z,77.7
2016-01-04T07:31:42.895Z,77.1
2016-01-04T07:32:42.820Z,78
2016-01-04T07:33:42.745Z,77.3
2016-01-04T07:34:42.685Z,77.2
2016-01-04T07:35:42.641Z,78.7
2016-01-04T07:36:42.566Z,77.8
2016-01-04T07:37:42.506Z,78.3
2016-01-04T07:38:42.447Z,77.3
2016-01-04T07:39:42.371Z,77.5
2016-01-04T07:40:42.545Z,76.8
2016-01-04T07:41:42.251Z,77.1
2016-01-04T07:42:42.207Z,76.9
2016-01-04T07:43:42.147Z,77.8
2016-01-04T07:44:42.056Z,77.3
2016-01-04T07:45:41.980Z,77.5
2016-01-04T07:46:41.920Z,78.2
2016-01-04T07:47:41.860Z,77.5
2016-01-04T07:48:41.801Z,77.2
2016-01-04T07:49:41.726Z,77.6
2016-01-04T07:50:40.931Z,77.9
2016-01-04T07:51:41.591Z,77.9
2016-01-04T07:52:41.546Z,77.5
2016-01-04T07:53:41.486Z,77.8
2016-01-04T07:54:41.411Z,76.5
2016-01-04T07:55:41.327Z,76.3
2016-01-04T07:56:41.255Z,76.2
2016-01-04T07:57:41.182Z,77
2016-01-04T07:58:41.095Z,76.9
2016-01-04T07:59:41.038Z,77.3
2016-01-04T08:00:40.956Z,77.4
2016-01-04T08:01:40.907Z,77.1
2016-01-04T08:02:41.046Z,77
2016-01-04T08:03:40.747Z,76.4
2016-01-04T08:04:40.683Z,76.9
2016-01-04T08:05:40.839Z,77.7
2016-01-04T08:06:40.559Z,78.1
2016-01-04T08:07:40.482Z,78.1
2016-01-04T08:08:39.687Z,78.6
2016-01-04T08:09:40.203Z,78
2016-01-04T08:10:40.283Z,77.6
2016-01-04T08:11:40.239Z,76.9
2016-01-04T08:12:40.147Z,77.1
2016-01-04T08:13:40.322Z,77.2
2016-01-04T08:14:40.261Z,76.3
2016-01-04T08:15:39.967Z,77
2016-01-04T08:16:39.907Z,76.1
2016-01-04T08:17:39.831Z,76.5
2016-01-04T08:18:39.771Z,76.3
2016-01-04T08:19:39.693Z,76.6
2016-01-04T08:20:39.664Z,75.8
2016-01-04T08:21:39.572Z,75
2016-01-04T08:22:39.513Z,75.3
2016-01-04T08:23:39.453Z,75.4
2016-01-04T08:24:39.377Z,75
2016-01-04T08:25:39.318Z,75.8
2016-01-04T08:26:39.242Z,76.1
2016-01-04T08:27:39.183Z,76.5
2016-01-04T08:28:39.123Z,76.3
2016-01-04T08:29:39.064Z,75.7
2016-01-04T08:30:38.988Z,75.8
2016-01-04T08:31:38.928Z,76.1
2016-01-04T08:32:38.868Z,76.1
2016-01-04T08:33:38.793Z,76
2016-01-04T08:34:38.733Z,75.7
2016-01-04T08:35:38.674Z,75.3
2016-01-04T08:36:38.597Z,75.1
2016-01-04T08:37:38.554Z,75.3
2016-01-04T08:38:38.493Z,75.1
2016-01-04T08:39:38.402Z,74.7
2016-01-04T08:40:38.343Z,74.7
2016-01-04T08:41:38.298Z,75.4
2016-01-04T08:42:38.223Z,76.1
2016-01-04T08:43:38.148Z,76.2
2016-01-04T08:44:38.104Z,75.2
2016-01-04T08:45:38.044Z,74.8
2016-01-04T08:46:37.968Z,74.4
2016-01-04T08:47:37.909Z,74.2
2016-01-04T08:48:37.849Z,75.1
2016-01-04T08:49:37.773Z,75.5
2016-01-04T08:50:37.729Z,75.5
2016-01-04T08:51:37.654Z,75.3
2016-01-04T08:52:37.595Z,74.4
2016-01-04T08:53:37.534Z,74
2016-01-04T08:54:37.459Z,74.8
2016-01-04T08:55:37.399Z,75.3
2016-01-04T08:56:37.324Z,75.4
2016-01-04T08:57:37.498Z,74.6
2016-01-04T08:58:37.204Z,75.6
2016-01-04T08:59:37.129Z,75.2
2016-01-04T09:00:37.069Z,73.6
2016-01-04T09:01:37.009Z,73.5
2016-01-04T09:02:36.950Z,73.6
2016-01-04T09:03:36.889Z,74.2
2016-01-04T09:04:36.830Z,75.5
2016-01-04T09:05:36.755Z,74.7
2016-01-04T09:06:36.678Z,75.1
2016-01-04T09:07:36.619Z,74.6
2016-01-04T09:08:36.575Z,73.9
2016-01-04T09:09:36.483Z,74.5
2016-01-04T09:10:36.424Z,74.6
2016-01-04T09:11:36.364Z,74.5
2016-01-04T09:12:36.305Z,74.2
2016-01-04T09:13:36.244Z,73.9
2016-01-04T09:14:36.168Z,73.8
2016-01-04T09:15:36.109Z,73
2016-01-04T09:16:36.049Z,72.6
2016-01-04T09:17:35.990Z,72.5
2016-01-04T09:18:35.757Z,73.4
2016-01-04T09:19:36.089Z,73.5
2016-01-04T09:20:35.779Z,73.4
2016-01-04T09:21:35.719Z,73.5
2016-01-04T09:22:35.659Z,74.6
2016-01-04T09:23:35.599Z,74.8
2016-01-04T09:24:35.539Z,73.8
2016-01-04T09:25:35.464Z,73.3
2016-01-04T09:26:35.404Z,73.6
2016-01-04T09:27:35.345Z,74.5
2016-01-04T09:28:34.535Z,73.9
2016-01-04T09:29:35.210Z,73.5
2016-01-04T09:30:35.165Z,73.6
2016-01-04T09:31:35.308Z,73.4
2016-01-04T09:32:35.014Z,73.5
2016-01-04T09:33:34.955Z,73.9
2016-01-04T09:34:35.113Z,74.1
2016-01-04T09:35:34.819Z,74.3
2016-01-04T09:36:34.760Z,74.2
2016-01-04T09:37:34.699Z,73.8
2016-01-04T09:38:34.639Z,74.1
2016-01-04T09:39:34.564Z,73.8
2016-01-04T09:40:34.505Z,74.6
2016-01-04T09:41:34.664Z,73.9
2016-01-04T09:42:34.370Z,73.9
2016-01-04T09:43:34.310Z,74.2
2016-01-04T09:44:34.234Z,73.8
2016-01-04T09:45:34.408Z,74
2016-01-04T09:46:34.130Z,73.7
2016-01-04T09:47:34.054Z,73.6
2016-01-04T09:48:33.979Z,74
2016-01-04T09:49:33.919Z,74.2
2016-01-04T09:50:33.844Z,73.9
2016-01-04T09:51:33.785Z,73
2016-01-04T09:52:33.725Z,72.6
2016-01-04T09:53:33.665Z,72.5
2016-01-04T09:54:33.823Z,73.6
2016-01-04T09:55:33.529Z,73.8
2016-01-04T09:56:33.470Z,72.9
2016-01-04T09:57:33.629Z,72.6
2016-01-04T09:58:33.334Z,72.7
2016-01-04T09:59:33.275Z,72.2
2016-01-04T10:00:33.215Z,71.5
2016-01-04T10:01:32.999Z,72.5
2016-01-04T10:02:33.083Z,73.2
2016-01-04T10:03:33.242Z,73.4
2016-01-04T10:04:32.947Z,72.4
2016-01-04T10:05:32.887Z,72.1
2016-01-04T10:06:32.812Z,72.7
2016-01-04T10:07:32.753Z,72.6
2016-01-04T10:08:32.692Z,73.1
2016-01-04T10:09:32.648Z,73.6
2016-01-04T10:10:32.573Z,73.4
2016-01-04T10:11:32.528Z,72.4
2016-01-04T10:12:32.438Z,72.5
2016-01-04T10:13:32.394Z,72.8
2016-01-04T10:14:32.303Z,73.2
2016-01-04T10:15:32.478Z,73.4
2016-01-04T10:16:32.184Z,72.8
2016-01-04T10:17:32.123Z,72.6
2016-01-04T10:18:32.064Z,72.8
2016-01-04T10:19:32.003Z,72
2016-01-04T10:20:31.928Z,71.4
2016-01-04T10:21:31.869Z,71.6
2016-01-04T10:22:31.808Z,71.9
2016-01-04T10:23:31.749Z,71.3
2016-01-04T10:24:31.674Z,70.6
2016-01-04T10:25:31.614Z,70.6
2016-01-04T10:26:31.554Z,71.3
2016-01-04T10:27:31.494Z,70.7
2016-01-04T10:28:31.419Z,70.2
2016-01-04T10:29:31.359Z,71
2016-01-04T10:30:31.283Z,71.7
2016-01-04T10:31:31.240Z,72.2
2016-01-04T10:32:31.163Z,72.2
2016-01-04T10:33:31.104Z,72.2
2016-01-04T10:34:31.044Z,72.4
2016-01-04T10:35:30.984Z,73.7
2016-01-04T10:36:30.910Z,72.2
2016-01-04T10:37:30.849Z,72.9
2016-01-04T10:38:30.790Z,73.7
2016-01-04T10:39:30.714Z,74.2
2016-01-04T10:40:30.670Z,74.1
2016-01-04T10:41:30.594Z,74.6
2016-01-04T10:42:30.535Z,75.1
2016-01-04T10:43:30.459Z,74.2
2016-01-04T10:44:30.400Z,74.2
2016-01-04T10:45:30.356Z,75.2
2016-01-04T10:46:30.296Z,75.6
2016-01-04T10:47:30.204Z,74.1
2016-01-04T10:48:30.145Z,75.1
2016-01-04T10:49:30.085Z,74.9
2016-01-04T10:50:30.025Z,74.8
2016-01-04T10:51:29.964Z,75.7
2016-01-04T10:52:29.889Z,76.3
2016-01-04T10:53:29.831Z,75.1
2016-01-04T10:54:29.755Z,74.1
2016-01-04T10:55:29.695Z,75.4
2016-01-04T10:56:29.636Z,76.1
2016-01-04T10:57:29.575Z,76.9
2016-01-04T10:58:29.531Z,77
2016-01-04T10:59:29.440Z,75.7
2016-01-04T11:00:29.396Z,75
2016-01-04T11:01:29.320Z,74.8
2016-01-04T11:02:29.277Z,74.8
2016-01-04T11:03:29.201Z,75
2016-01-04T11:04:29.125Z,76
2016-01-04T11:05:29.063Z,77.2
2016-01-04T11:06:29.238Z,77.2
2016-01-04T11:07:28.943Z,76.3
2016-01-04T11:08:28.883Z,76.3
2016-01-04T11:09:28.823Z,76
2016-01-04T11:10:28.748Z,76
2016-01-04T11:11:28.688Z,74.7
2016-01-04T11:12:28.629Z,75.4
2016-01-04T11:13:28.554Z,76.4
2016-01-04T11:14:28.493Z,76.8
2016-01-04T11:15:28.449Z,77.2
2016-01-04T11:16:28.389Z,76.2
2016-01-04T11:17:28.315Z,75.7
2016-01-04T11:18:28.270Z,76.1
2016-01-04T11:19:28.179Z,76.3
2016-01-04T11:20:28.120Z,76.1
2016-01-04T11:21:28.075Z,77.5
2016-01-04T11:22:27.984Z,77.1
2016-01-04T11:23:27.924Z,77.6
2016-01-04T11:24:27.880Z,77.4
2016-01-04T11:25:27.804Z,77.7
2016-01-04T11:26:27.745Z,77.2
2016-01-04T11:27:27.669Z,77.3
2016-01-04T11:28:27.609Z,77.6
2016-01-04T11:29:27.550Z,78.1
2016-01-04T11:30:27.474Z,78.4
2016-01-04T11:31:27.415Z,78.4
2016-01-04T11:32:27.355Z,77.5
2016-01-04T11:33:27.280Z,77.6
2016-01-04T11:34:27.220Z,77.4
2016-01-04T11:35:27.175Z,77.9
2016-01-04T11:36:27.116Z,77.4
2016-01-04T11:37:27.040Z,77
2016-01-04T11:38:26.964Z,77.4
2016-01-04T11:39:26.905Z,77.6
2016-01-04T11:40:26.845Z,78.8
2016-01-04T11:41:26.786Z,77.7
2016-01-04T11:42:26.725Z,77.3
2016-01-04T11:43:26.650Z,77.7
2016-01-04T11:44:26.590Z,77.6
2016-01-04T11:45:26.546Z,77.5
2016-01-04T11:46:26.471Z,77.9
2016-01-04T11:47:26.410Z,76.8
2016-01-04T11:48:26.336Z,77.1
2016-01-04T11:49:26.276Z,78.4
2016-01-04T11:50:26.201Z,77.2
2016-01-04T11:51:26.140Z,76.8
2016-01-04T11:52:26.082Z,77.2
2016-01-04T11:53:26.020Z,77.5
2016-01-04T11:54:25.962Z,77.5
2016-01-04T11:55:25.886Z,77.1
2016-01-04T11:56:25.826Z,77.6
2016-01-04T11:57:25.766Z,77.9
2016-01-04T11:58:25.690Z,78.5
2016-01-04T11:59:25.631Z,77.3
2016-01-04T12:00:25.571Z,78.2
2016-01-04T12:01:25.511Z,78.6
2016-01-04T12:02:25.452Z,77.8
2016-01-04T12:03:25.392Z,77.5
2016-01-04T12:04:25.332Z,76.8
2016-01-04T12:05:25.491Z,77
2016-01-04T12:06:25.197Z,77.2
2016-01-04T12:07:25.356Z,78.1
2016-01-04T12:08:25.062Z,78.4
2016-01-04T12:09:25.002Z,77.1
2016-01-04T12:10:25.161Z,77.2
2016-01-04T12:11:24.882Z,77.8
2016-01-04T12:12:24.807Z,77.3
2016-01-04T12:13:24.747Z,77.6
2016-01-04T12:14:24.687Z,77.7
2016-01-04T12:15:24.628Z,77.3
2016-01-04T12:16:24.552Z,77.6
2016-01-04T12:17:24.492Z,77.3
2016-01-04T12:18:24.448Z,77.3
2016-01-04T12:19:24.357Z,78.4
2016-01-04T12:20:24.313Z,77.5
2016-01-04T12:21:24.238Z,76.9
2016-01-04T12:22:24.178Z,78.2
2016-01-04T12:23:24.118Z,78.7
2016-01-04T12:24:24.058Z,79.2
2016-01-04T12:25:23.998Z,80.4
2016-01-04T12:26:23.923Z,79
2016-01-04T12:27:23.863Z,78.7
2016-01-04T12:28:23.804Z,78.4
2016-01-04T12:29:23.743Z,78.8
2016-01-04T12:30:23.668Z,77.6
2016-01-04T12:31:23.607Z,78
2016-01-04T12:32:23.533Z,78.4
2016-01-04T12:33:23.707Z,79.8
2016-01-04T12:34:23.428Z,80.4
2016-01-04T12:35:23.354Z,79.9
2016-01-04T12:36:23.294Z,80.4
2016-01-04T12:37:23.234Z,79.7
2016-01-04T12:38:23.174Z,79.9
2016-01-04T12:39:23.098Z,79.6
2016-01-04T12:40:23.039Z,79.9
2016-01-04T12:41:22.978Z,80.2
2016-01-04T12:42:22.919Z,80.4
2016-01-04T12:43:22.844Z,80.9
2016-01-04T12:44:22.784Z,80.9
2016-01-04T12:45:22.740Z,82.3
2016-01-04T12:46:22.883Z,81.6
2016-01-04T12:47:22.838Z,80.6
2016-01-04T12:48:22.544Z,81
2016-01-04T12:49:22.469Z,80.8
2016-01-04T12:50:22.409Z,82.4
2016-01-04T12:51:22.334Z,82.9
2016-01-04T12:52:22.289Z,83.4
2016-01-04T12:53:22.230Z,83.9
2016-01-04T12:54:22.155Z,82.9
2016-01-04T12:55:22.094Z,83.6
2016-01-04T12:56:22.035Z,84.4
2016-01-04T12:57:21.975Z,85.1
2016-01-04T12:58:21.916Z,84.7
2016-01-04T12:59:21.856Z,85.9
2016-01-04T13:00:21.781Z,86.7
2016-01-04T13:01:21.721Z,85.4
2016-01-04T13:02:21.646Z,84.7
2016-01-04T13:03:21.586Z,83.2
2016-01-04T13:04:21.524Z,83.8
2016-01-04T13:05:21.463Z,83.6
2016-01-04T13:06:21.403Z,84.4
2016-01-04T13:07:21.343Z,82.2
2016-01-04T13:08:21.268Z,82.7
2016-01-04T13:09:21.208Z,83.1
2016-01-04T13:10:21.149Z,82.1
2016-01-04T13:11:21.324Z,83
2016-01-04T13:12:21.029Z,83.1
2016-01-04T13:13:20.969Z,83.8
2016-01-04T13:14:20.893Z,83.9
2016-01-04T13:15:21.084Z,84.2
2016-01-04T13:16:20.774Z,83.9
2016-01-04T13:17:20.698Z,84.3
2016-01-04T13:18:20.670Z,85.2
2016-01-04T13:19:20.579Z,85.9
2016-01-04T13:20:20.520Z,86
2016-01-04T13:21:20.459Z,85.9
2016-01-04T13:22:20.400Z,84.8
2016-01-04T13:23:20.339Z,85.7
2016-01-04T13:24:20.264Z,85.9
2016-01-04T13:25:20.205Z,86.7
2016-01-04T13:26:20.145Z,87.6
2016-01-04T13:27:20.069Z,86.8
2016-01-04T13:28:20.025Z,87.3